Time;durP1;ratioP1;P1;durP2;ratioP2;P2;SDS_P1;SDS_P2;PMS_P1;PMS_P2;Temp;Humidity;BMP_temperature;BMP_pressure;BME280_temperature;BME280_humidity;BME280_pressure;Samples;Min_cycle;Max_cycle;Signal;HPM_P1;HPM_P2
2022/07/11 00:02:02;;;;;;;0.30;0.30;;;14.30;99.90;;;;;;4976491;28;21065;-77
2022/07/11 00:04:29;;;;;;;0.30;0.30;;;14.30;99.90;;;;;;4976765;28;20453;-77
2022/07/11 00:06:56;;;;;;;0.50;0.40;;;14.30;99.90;;;;;;4976389;28;20897;-77
2022/07/11 00:09:25;;;;;;;0.47;0.47;;;14.30;99.90;;;;;;4976693;28;20461;-77
2022/07/11 00:11:51;;;;;;;0.70;0.50;;;14.30;99.90;;;;;;4976449;28;20484;-77
2022/07/11 00:14:19;;;;;;;0.40;0.40;;;14.40;99.90;;;;;;4976330;28;20433;-77
2022/07/11 00:16:46;;;;;;;0.40;0.40;;;14.40;99.90;;;;;;4976505;28;20466;-77
2022/07/11 00:19:13;;;;;;;0.40;0.30;;;14.30;99.90;;;;;;4976515;28;20453;-77
2022/07/11 00:21:40;;;;;;;0.60;0.43;;;14.40;99.90;;;;;;4976091;28;21029;-77
2022/07/11 00:24:07;;;;;;;0.30;0.30;;;14.40;99.90;;;;;;4976415;28;20480;-77
2022/07/11 00:26:36;;;;;;;0.40;0.30;;;14.40;99.90;;;;;;4975988;28;20457;-77
2022/07/11 00:29:03;;;;;;;0.70;0.70;;;14.40;99.90;;;;;;4976457;28;20461;-77
2022/07/11 00:31:30;;;;;;;0.40;0.30;;;14.40;99.90;;;;;;4977061;28;20450;-77
2022/07/11 00:33:57;;;;;;;0.50;0.50;;;14.50;99.90;;;;;;4976535;28;20455;-77
2022/07/11 00:36:24;;;;;;;0.40;0.40;;;14.50;99.90;;;;;;4976107;28;20454;-77
2022/07/11 00:38:51;;;;;;;0.50;0.30;;;14.50;99.90;;;;;;4976020;28;20818;-77
2022/07/11 00:41:18;;;;;;;0.30;0.30;;;14.50;99.90;;;;;;4976214;28;20858;-77
2022/07/11 00:43:52;;;;;;;0.40;0.40;;;14.50;99.90;;;;;;4974954;28;20456;-77
2022/07/11 00:46:19;;;;;;;0.40;0.40;;;14.60;99.90;;;;;;4976045;28;20441;-77
2022/07/11 00:48:45;;;;;;;0.60;0.40;;;14.60;99.90;;;;;;4976092;28;20473;-77
2022/07/11 00:51:13;;;;;;;0.40;0.30;;;14.60;99.90;;;;;;4975915;28;20450;-77
2022/07/11 00:53:40;;;;;;;0.40;0.30;;;14.60;99.90;;;;;;4975575;28;20449;-77
2022/07/11 00:56:08;;;;;;;0.40;0.30;;;14.70;99.90;;;;;;4975839;28;20583;-77
2022/07/11 00:58:35;;;;;;;0.40;0.40;;;14.70;99.90;;;;;;4975406;28;21023;-77
2022/07/11 01:01:04;;;;;;;0.40;0.40;;;14.70;99.90;;;;;;4975407;28;21020;-77
2022/07/11 01:03:31;;;;;;;0.30;0.30;;;14.80;99.90;;;;;;4975693;28;20449;-77
2022/07/11 01:05:57;;;;;;;0.40;0.30;;;14.80;99.90;;;;;;4975670;28;20457;-77
2022/07/11 01:08:24;;;;;;;0.40;0.40;;;14.80;99.90;;;;;;4975236;28;20466;-77
2022/07/11 01:10:51;;;;;;;0.70;0.40;;;14.80;99.90;;;;;;4975576;28;20454;-77
2022/07/11 01:13:17;;;;;;;0.30;0.30;;;14.80;99.90;;;;;;4975256;28;20496;-77
2022/07/11 01:15:44;;;;;;;0.83;0.30;;;14.80;99.90;;;;;;4975230;28;20456;-77
2022/07/11 01:18:12;;;;;;;0.50;0.50;;;14.80;99.90;;;;;;4975311;28;20457;-77
2022/07/11 01:20:39;;;;;;;0.40;0.37;;;14.80;99.90;;;;;;4976048;28;20445;-77
2022/07/11 01:23:08;;;;;;;0.40;0.40;;;14.80;99.90;;;;;;4975305;28;20843;-77
2022/07/11 01:25:35;;;;;;;1.47;0.73;;;14.80;99.90;;;;;;4975353;28;20453;-77
2022/07/11 01:28:06;;;;;;;0.40;0.30;;;14.70;99.90;;;;;;4975208;28;20536;-77
2022/07/11 01:30:33;;;;;;;0.50;0.50;;;14.70;99.90;;;;;;4974949;28;20437;-77
2022/07/11 01:33:00;;;;;;;0.60;0.60;;;14.70;99.90;;;;;;4975318;28;20449;-77
2022/07/11 01:35:29;;;;;;;0.40;0.37;;;14.70;99.90;;;;;;4975404;28;20453;-77
2022/07/11 01:37:56;;;;;;;0.40;0.30;;;14.70;99.90;;;;;;4974685;28;21001;-77
2022/07/11 01:40:24;;;;;;;0.50;0.40;;;14.70;99.90;;;;;;4975045;28;20445;-77
2022/07/11 01:42:50;;;;;;;0.50;0.37;;;14.70;99.90;;;;;;4974648;28;20488;-77
2022/07/11 01:45:17;;;;;;;0.43;0.40;;;14.70;99.90;;;;;;4974985;28;20450;-77
2022/07/11 01:47:44;;;;;;;0.40;0.30;;;14.70;99.90;;;;;;4974632;28;20977;-77
2022/07/11 01:50:11;;;;;;;0.50;0.40;;;14.70;99.90;;;;;;4975144;28;20453;-77
2022/07/11 01:52:37;;;;;;;0.83;0.50;;;14.70;99.90;;;;;;4974864;28;20450;-77
2022/07/11 01:55:05;;;;;;;0.40;0.30;;;14.70;99.90;;;;;;4974742;28;20537;-77
2022/07/11 01:57:33;;;;;;;0.50;0.40;;;14.70;99.90;;;;;;4974490;28;20846;-77
2022/07/11 01:59:59;;;;;;;0.40;0.30;;;14.60;99.90;;;;;;4974453;28;20454;-77
2022/07/11 02:02:26;;;;;;;5.07;0.83;;;14.50;99.90;;;;;;4975460;28;20485;-77
2022/07/11 02:04:53;;;;;;;0.40;0.37;;;14.60;99.90;;;;;;4974720;28;20445;-77
2022/07/11 02:08:11;;;;;;;1.00;0.50;;;14.50;99.90;;;;;;4974562;28;20480;-77
2022/07/11 02:10:08;;;;;;;0.40;0.30;;;14.50;99.90;;;;;;4974192;28;20473;-77
2022/07/11 02:12:36;;;;;;;0.87;0.40;;;14.50;99.90;;;;;;4974350;28;20487;-77
2022/07/11 02:15:03;;;;;;;0.40;0.40;;;14.50;99.90;;;;;;4974613;28;20841;-77
2022/07/11 02:17:29;;;;;;;0.73;0.40;;;14.50;99.90;;;;;;4974232;28;20457;-77
2022/07/11 02:19:56;;;;;;;0.70;0.70;;;14.40;99.90;;;;;;4974960;28;20457;-77
2022/07/11 02:22:23;;;;;;;0.80;0.50;;;14.50;99.90;;;;;;4974457;28;20856;-77
2022/07/11 02:24:50;;;;;;;1.03;0.50;;;14.40;99.90;;;;;;4974469;28;20449;-77
2022/07/11 02:27:16;;;;;;;0.40;0.40;;;14.40;99.90;;;;;;4974413;28;20477;-77
2022/07/11 02:29:44;;;;;;;0.40;0.40;;;14.40;99.90;;;;;;4974467;28;20445;-77
2022/07/11 02:32:11;;;;;;;0.40;0.30;;;14.40;99.90;;;;;;4974432;28;20525;-77
2022/07/11 02:34:38;;;;;;;0.40;0.40;;;14.40;99.90;;;;;;4974436;28;20481;-77
2022/07/11 02:37:05;;;;;;;0.50;0.50;;;14.40;99.90;;;;;;4974376;28;20476;-77
2022/07/11 02:39:33;;;;;;;0.40;0.30;;;14.40;99.90;;;;;;4974390;28;20504;-77
2022/07/11 02:41:59;;;;;;;0.67;0.50;;;14.30;99.90;;;;;;4973946;28;20487;-77
2022/07/11 02:44:26;;;;;;;0.60;0.40;;;14.40;99.90;;;;;;4974367;28;20453;-77
2022/07/11 02:46:54;;;;;;;0.50;0.50;;;14.40;99.90;;;;;;4974255;28;20489;-77
2022/07/11 02:49:23;;;;;;;0.57;0.40;;;14.40;99.90;;;;;;4974502;28;20449;-77
2022/07/11 02:51:49;;;;;;;0.53;0.40;;;14.40;99.90;;;;;;4974499;28;20457;-77
2022/07/11 02:54:16;;;;;;;0.60;0.60;;;14.40;99.90;;;;;;4974264;28;20457;-77
2022/07/11 02:56:43;;;;;;;0.77;0.50;;;14.50;99.90;;;;;;4974372;28;20808;-77
2022/07/11 02:59:10;;;;;;;0.40;0.40;;;14.40;99.90;;;;;;4974420;28;20464;-77
2022/07/11 03:01:37;;;;;;;0.60;0.30;;;14.40;99.90;;;;;;4974133;28;20457;-77
2022/07/11 03:04:05;;;;;;;0.50;0.40;;;14.40;99.90;;;;;;4974116;28;20449;-77
2022/07/11 03:06:32;;;;;;;0.50;0.50;;;14.50;99.90;;;;;;4975208;28;20461;-77
2022/07/11 03:08:58;;;;;;;0.40;0.33;;;14.50;99.90;;;;;;4977524;28;20452;-77
2022/07/11 03:11:25;;;;;;;1.13;0.50;;;14.50;99.90;;;;;;4978005;28;20453;-77
2022/07/11 03:13:52;;;;;;;0.70;0.70;;;14.50;99.90;;;;;;4977431;28;20451;-77
2022/07/11 03:16:18;;;;;;;0.40;0.40;;;14.50;99.90;;;;;;4977687;28;20449;-77
2022/07/11 03:18:45;;;;;;;0.60;0.57;;;14.50;99.90;;;;;;4977297;28;20984;-77
2022/07/11 03:21:13;;;;;;;1.40;0.40;;;14.50;99.90;;;;;;4977576;28;20456;-77
2022/07/11 03:23:40;;;;;;;0.97;0.50;;;14.60;99.90;;;;;;4977500;28;20492;-77
2022/07/11 03:26:07;;;;;;;0.40;0.30;;;14.60;99.90;;;;;;4977189;28;20946;-77
2022/07/11 03:28:33;;;;;;;0.30;0.30;;;14.70;99.90;;;;;;4977397;28;20472;-77
2022/07/11 03:31:00;;;;;;;1.03;0.50;;;14.70;99.90;;;;;;4977414;28;20457;-77
2022/07/11 03:33:27;;;;;;;0.80;0.70;;;14.70;99.90;;;;;;4977124;28;20809;-77
2022/07/11 03:35:54;;;;;;;0.40;0.37;;;14.70;99.90;;;;;;4977509;28;20460;-77
2022/07/11 03:38:22;;;;;;;0.73;0.40;;;14.70;99.90;;;;;;4976962;28;21019;-77
2022/07/11 03:40:49;;;;;;;2.60;0.70;;;14.70;99.90;;;;;;4977502;28;20453;-77
2022/07/11 03:43:16;;;;;;;0.40;0.30;;;14.70;99.90;;;;;;4976830;28;20488;-77
2022/07/11 03:45:43;;;;;;;0.40;0.40;;;14.70;99.90;;;;;;4977157;28;20527;-77
2022/07/11 03:48:10;;;;;;;0.50;0.50;;;14.80;99.90;;;;;;4976962;28;20987;-77
2022/07/11 03:50:37;;;;;;;1.23;0.37;;;14.70;99.90;;;;;;4977083;28;20476;-77
2022/07/11 03:53:03;;;;;;;0.40;0.40;;;14.80;99.90;;;;;;4976733;28;20941;-77
2022/07/11 03:55:32;;;;;;;1.60;0.50;;;14.80;99.90;;;;;;4976935;28;20449;-77
2022/07/11 03:57:59;;;;;;;0.40;0.40;;;14.80;99.90;;;;;;4977076;28;20504;-77
2022/07/11 04:00:26;;;;;;;0.63;0.40;;;14.80;99.90;;;;;;4976871;28;20454;-77
2022/07/11 04:02:53;;;;;;;0.50;0.40;;;14.80;99.90;;;;;;4976522;28;20521;-77
2022/07/11 04:05:20;;;;;;;1.17;0.60;;;14.80;99.90;;;;;;4976917;28;20456;-77
2022/07/11 04:07:46;;;;;;;0.73;0.60;;;14.80;99.90;;;;;;4976689;28;20489;-77
2022/07/11 04:10:13;;;;;;;0.70;0.50;;;14.80;99.90;;;;;;4976741;28;20841;-77
2022/07/11 04:12:41;;;;;;;0.40;0.30;;;14.80;99.90;;;;;;4976431;28;20477;-77
2022/07/11 04:15:09;;;;;;;0.40;0.30;;;14.70;99.90;;;;;;4976629;28;20449;-77
2022/07/11 04:17:36;;;;;;;1.77;0.47;;;14.80;99.90;;;;;;4975737;28;20476;-76
2022/07/11 04:20:03;;;;;;;0.60;0.40;;;14.80;99.90;;;;;;4976151;28;20458;-77
2022/07/11 04:22:30;;;;;;;1.10;0.60;;;14.80;99.90;;;;;;4976654;28;20485;-77
2022/07/11 04:24:57;;;;;;;0.60;0.43;;;14.80;99.90;;;;;;4976459;28;20541;-77
2022/07/11 04:27:25;;;;;;;0.87;0.60;;;14.90;99.90;;;;;;4976343;28;20476;-77
2022/07/11 04:29:53;;;;;;;0.70;0.40;;;14.90;99.90;;;;;;4976394;28;20540;-77
2022/07/11 04:32:20;;;;;;;1.00;0.40;;;14.80;99.90;;;;;;4976339;28;20547;-77
2022/07/11 04:34:47;;;;;;;1.47;0.73;;;14.90;99.90;;;;;;4976291;28;20552;-77
2022/07/11 04:37:14;;;;;;;2.00;0.70;;;14.90;99.90;;;;;;4976406;28;20469;-77
2022/07/11 04:39:41;;;;;;;0.73;0.43;;;15.00;99.90;;;;;;4976162;28;20453;-77
2022/07/11 04:42:07;;;;;;;0.43;0.40;;;15.00;99.90;;;;;;4976098;28;20810;-77
2022/07/11 04:44:34;;;;;;;0.60;0.60;;;15.10;99.90;;;;;;4975807;28;20529;-77
2022/07/11 04:47:02;;;;;;;1.00;0.60;;;15.10;99.90;;;;;;4975960;28;20477;-77
2022/07/11 04:49:30;;;;;;;1.97;0.60;;;15.10;99.90;;;;;;4975997;28;20456;-77
2022/07/11 04:51:57;;;;;;;0.50;0.50;;;15.20;99.90;;;;;;4975931;28;20446;-77
2022/07/11 04:54:24;;;;;;;5.43;2.40;;;15.20;99.90;;;;;;4975619;28;20453;-77
2022/07/11 04:56:51;;;;;;;0.40;0.40;;;15.30;99.90;;;;;;4975791;28;20469;-77
2022/07/11 04:59:17;;;;;;;0.60;0.43;;;15.30;99.90;;;;;;4975816;28;20480;-77
2022/07/11 05:01:44;;;;;;;1.20;0.80;;;15.40;99.90;;;;;;4975804;28;20445;-77
2022/07/11 05:04:12;;;;;;;0.60;0.60;;;15.40;99.90;;;;;;4975670;28;20491;-77
2022/07/11 05:06:39;;;;;;;2.10;0.60;;;15.50;99.90;;;;;;4975771;28;20453;-77
2022/07/11 05:09:07;;;;;;;2.30;0.73;;;15.50;99.90;;;;;;4975539;28;20446;-77
2022/07/11 05:11:34;;;;;;;1.23;0.50;;;15.60;99.90;;;;;;4975403;28;20438;-77
2022/07/11 05:14:01;;;;;;;1.00;0.60;;;15.60;99.90;;;;;;4975600;28;20425;-77
2022/07/11 05:16:29;;;;;;;0.70;0.50;;;15.70;99.90;;;;;;4975449;28;20482;-77
2022/07/11 05:18:56;;;;;;;1.07;0.70;;;15.80;99.90;;;;;;4975489;28;20457;-77
2022/07/11 05:21:24;;;;;;;1.77;0.73;;;15.80;99.90;;;;;;4975418;28;20453;-77
2022/07/11 05:23:51;;;;;;;0.90;0.47;;;15.90;99.90;;;;;;4974969;28;20481;-77
2022/07/11 05:26:18;;;;;;;1.73;0.60;;;16.00;99.90;;;;;;4975322;28;20445;-77
2022/07/11 05:28:45;;;;;;;0.47;0.47;;;16.00;99.90;;;;;;4975057;28;20484;-77
2022/07/11 05:31:12;;;;;;;0.87;0.53;;;16.10;99.90;;;;;;4975082;28;20457;-77
2022/07/11 05:33:38;;;;;;;0.70;0.70;;;16.10;99.90;;;;;;4974903;28;20942;-77
2022/07/11 05:36:06;;;;;;;1.30;0.63;;;16.20;99.90;;;;;;4975242;28;20445;-77
2022/07/11 05:38:34;;;;;;;1.23;0.53;;;16.20;99.90;;;;;;4975112;28;20481;-77
2022/07/11 05:41:01;;;;;;;0.90;0.90;;;16.30;99.90;;;;;;4975045;28;20551;-77
2022/07/11 05:43:28;;;;;;;0.63;0.63;;;16.40;99.90;;;;;;4974973;28;20490;-77
2022/07/11 05:45:55;;;;;;;1.43;0.80;;;16.50;99.90;;;;;;4975266;28;20943;-77
2022/07/11 05:48:22;;;;;;;0.90;0.73;;;16.60;99.90;;;;;;4974578;28;20472;-77
2022/07/11 05:50:48;;;;;;;1.17;1.03;;;16.70;99.90;;;;;;4974933;28;20784;-77
2022/07/11 05:53:15;;;;;;;0.90;0.60;;;16.80;99.90;;;;;;4974743;28;20449;-77
2022/07/11 05:55:43;;;;;;;0.50;0.50;;;16.80;99.90;;;;;;4974838;28;20449;-77
2022/07/11 05:58:10;;;;;;;1.97;1.07;;;16.90;99.90;;;;;;4974762;28;20477;-77
2022/07/11 06:00:37;;;;;;;0.80;0.70;;;17.00;99.90;;;;;;4974800;28;20449;-77
2022/07/11 06:03:04;;;;;;;1.43;1.33;;;17.20;99.90;;;;;;4974683;28;20489;-77
2022/07/11 06:05:30;;;;;;;1.17;0.80;;;17.20;99.90;;;;;;4974356;28;20449;-77
2022/07/11 06:10:43;;;;;;;0.70;0.70;;;17.20;99.90;;;;;;4975039;28;20409;-77
2022/07/11 06:13:09;;;;;;;1.00;0.70;;;17.30;99.90;;;;;;4974098;28;20855;-77
2022/07/11 06:15:36;;;;;;;0.70;0.70;;;17.40;99.90;;;;;;4974586;28;20450;-77
2022/07/11 06:18:03;;;;;;;1.10;0.97;;;17.50;99.90;;;;;;4974561;28;20469;-77
2022/07/11 06:20:31;;;;;;;0.93;0.60;;;17.60;99.90;;;;;;4974471;28;20888;-77
2022/07/11 06:22:58;;;;;;;0.73;0.73;;;17.60;99.90;;;;;;4974514;28;20544;-77
2022/07/11 06:25:25;;;;;;;0.97;0.80;;;17.70;99.90;;;;;;4974536;28;20452;-77
2022/07/11 06:27:53;;;;;;;1.33;0.80;;;17.70;99.90;;;;;;4974452;28;20472;-77
2022/07/11 06:30:20;;;;;;;0.90;0.90;;;17.70;99.90;;;;;;4974478;28;20484;-77
2022/07/11 06:32:46;;;;;;;0.83;0.53;;;17.70;99.90;;;;;;4974432;28;20461;-77
2022/07/11 06:35:13;;;;;;;2.10;1.13;;;17.90;99.90;;;;;;4974714;28;20449;-77
2022/07/11 06:37:40;;;;;;;2.70;1.07;;;18.00;99.90;;;;;;4974042;28;21118;-78
2022/07/11 06:40:10;;;;;;;2.57;1.10;;;17.90;99.90;;;;;;4974707;28;20434;-78
2022/07/11 06:42:37;;;;;;;0.70;0.50;;;18.10;99.90;;;;;;4976905;28;20968;-78
2022/07/11 06:45:06;;;;;;;0.80;0.80;;;18.30;99.90;;;;;;4978300;28;20464;-78
2022/07/11 06:47:33;;;;;;;1.77;0.73;;;18.40;99.90;;;;;;4978203;28;20473;-78
2022/07/11 06:50:00;;;;;;;0.73;0.63;;;18.50;99.90;;;;;;4978546;28;20453;-78
2022/07/11 06:52:27;;;;;;;0.90;0.70;;;18.50;99.90;;;;;;4978157;28;20507;-78
2022/07/11 06:54:53;;;;;;;1.77;0.90;;;18.50;99.90;;;;;;4978163;28;20456;-78
2022/07/11 06:57:20;;;;;;;1.70;0.70;;;18.50;99.90;;;;;;4977707;28;20997;-78
2022/07/11 06:59:47;;;;;;;3.03;0.60;;;18.60;99.90;;;;;;4978054;28;20449;-78
2022/07/11 07:02:15;;;;;;;1.70;1.00;;;18.70;99.90;;;;;;4977927;28;20460;-78
2022/07/11 07:04:42;;;;;;;2.40;0.90;;;18.70;99.90;;;;;;4977813;28;20484;-78
2022/07/11 07:07:09;;;;;;;0.80;0.80;;;18.60;99.90;;;;;;4977546;28;20977;-78
2022/07/11 07:09:35;;;;;;;0.57;0.53;;;18.60;99.90;;;;;;4977513;28;20830;-78
2022/07/11 07:12:02;;;;;;;2.00;0.60;;;18.70;99.90;;;;;;4977637;28;20484;-78
2022/07/11 07:14:29;;;;;;;1.23;0.60;;;18.70;99.90;;;;;;4977549;28;20429;-77
2022/07/11 07:16:55;;;;;;;1.10;1.00;;;18.80;99.90;;;;;;4977627;28;20481;-78
2022/07/11 07:19:24;;;;;;;1.07;0.67;;;18.80;99.90;;;;;;4977653;28;20472;-78
2022/07/11 07:21:50;;;;;;;0.80;0.70;;;18.90;99.90;;;;;;4977344;28;20952;-77
2022/07/11 07:24:17;;;;;;;1.23;0.70;;;18.90;99.90;;;;;;4977536;28;20485;-78
2022/07/11 07:26:44;;;;;;;0.60;0.57;;;19.00;99.90;;;;;;4977473;28;20453;-77
2022/07/11 07:29:10;;;;;;;0.80;0.80;;;19.10;99.90;;;;;;4977165;28;20949;-78
2022/07/11 07:31:37;;;;;;;1.77;0.70;;;19.20;99.90;;;;;;4977720;28;20457;-78
2022/07/11 07:34:04;;;;;;;2.70;0.70;;;19.30;99.90;;;;;;4977416;28;20441;-78
2022/07/11 07:36:32;;;;;;;0.90;0.70;;;19.40;99.90;;;;;;4977317;28;20453;-78
2022/07/11 07:38:59;;;;;;;1.20;0.70;;;19.60;99.90;;;;;;4977108;28;20944;-78
2022/07/11 07:41:27;;;;;;;0.70;0.70;;;19.80;99.90;;;;;;4977122;28;20549;-78
2022/07/11 07:43:53;;;;;;;0.50;0.50;;;20.00;99.90;;;;;;4976917;28;20991;-78
2022/07/11 07:46:20;;;;;;;0.93;0.80;;;20.20;99.90;;;;;;4976910;28;20937;-78
2022/07/11 07:48:47;;;;;;;0.43;0.43;;;20.50;99.90;;;;;;4977118;28;20498;-78
2022/07/11 07:51:14;;;;;;;0.60;0.60;;;20.60;99.90;;;;;;4976870;28;20433;-78
2022/07/11 07:53:42;;;;;;;0.40;0.40;;;20.70;99.90;;;;;;4976484;28;20830;-79
2022/07/11 07:56:08;;;;;;;0.60;0.60;;;20.80;99.90;;;;;;4976983;28;20448;-79
2022/07/11 07:58:35;;;;;;;1.47;0.40;;;21.10;99.90;;;;;;4976654;28;20449;-78
2022/07/11 08:03:46;;;;;;;1.10;0.80;;;21.30;99.90;;;;;;4977243;28;20467;-79
2022/07/11 08:06:13;;;;;;;0.40;0.40;;;21.50;99.90;;;;;;4976850;28;20460;-79
2022/07/11 08:08:40;;;;;;;0.50;0.40;;;21.50;99.90;;;;;;4976788;28;20476;-79
2022/07/11 08:11:08;;;;;;;0.50;0.50;;;21.90;99.90;;;;;;4976770;28;20206;-79
2022/07/11 08:13:36;;;;;;;0.50;0.50;;;22.10;99.90;;;;;;4976337;28;20236;-79
2022/07/11 08:16:03;;;;;;;0.40;0.40;;;22.40;99.90;;;;;;4976696;28;20240;-80
2022/07/11 08:18:30;;;;;;;0.50;0.50;;;22.30;99.90;;;;;;4976636;28;20261;-80
2022/07/11 08:20:57;;;;;;;0.40;0.40;;;22.40;99.90;;;;;;4976594;28;20216;-80
2022/07/11 08:23:24;;;;;;;0.40;0.40;;;22.50;99.90;;;;;;4977108;28;20186;-80
2022/07/11 08:25:51;;;;;;;0.40;0.40;;;22.40;99.90;;;;;;4976525;28;20212;-80
2022/07/11 08:28:19;;;;;;;0.33;0.30;;;22.20;99.90;;;;;;4976090;28;20717;-80
2022/07/11 08:30:46;;;;;;;0.40;0.30;;;22.30;99.90;;;;;;4976397;28;20224;-80
2022/07/11 08:33:12;;;;;;;0.40;0.30;;;22.50;99.90;;;;;;4976184;28;20248;-81
2022/07/11 08:35:39;;;;;;;0.40;0.40;;;22.70;99.90;;;;;;4976014;28;20684;-83
2022/07/11 08:38:06;;;;;;;0.50;0.50;;;22.90;99.90;;;;;;4976439;28;20232;-82
2022/07/11 08:40:33;;;;;;;0.40;0.40;;;23.00;99.90;;;;;;4976110;28;20669;-81
2022/07/11 08:43:00;;;;;;;0.40;0.30;;;22.90;99.90;;;;;;4976879;28;20205;-89
2022/07/11 08:45:31;;;;;;;1.48;0.50;;;22.90;99.90;;;;;;4977278;28;20235;-88
2022/07/11 08:47:59;;;;;;;0.50;0.40;;;22.90;99.90;;;;;;4977484;28;20229;-90
2022/07/11 08:50:27;;;;;;;0.40;0.40;;;23.20;99.90;;;;;;4988357;28;20205;-88
2022/07/11 08:52:55;;;;;;;0.40;0.40;;;23.50;99.90;;;;;;4989816;28;20233;-88
2022/07/11 08:55:22;;;;;;;0.50;0.40;;;23.30;99.90;;;;;;4984845;28;20205;-89
2022/07/11 08:57:49;;;;;;;0.40;0.30;;;23.30;99.90;;;;;;4994081;28;20229;-88
2022/07/11 09:00:16;;;;;;;0.32;0.32;;;23.30;99.60;;;;;;4993077;28;20240;-88
2022/07/11 09:02:45;;;;;;;0.40;0.30;;;23.20;98.70;;;;;;4984232;28;20249;-89
2022/07/11 09:05:12;;;;;;;0.40;0.40;;;22.90;99.10;;;;;;4979105;28;20280;-89
2022/07/11 09:07:44;;;;;;;0.40;0.35;;;22.90;98.70;;;;;;4981079;28;20232;-88
2022/07/11 09:10:12;;;;;;;0.40;0.33;;;22.90;99.70;;;;;;4980944;28;20190;-88
2022/07/11 09:12:59;;;;;;;0.40;0.30;;;23.20;99.10;;;;;;4981011;28;20233;-89
2022/07/11 09:15:35;;;;;;;0.40;0.40;;;23.30;98.40;;;;;;4982335;28;20221;-90
2022/07/11 09:18:05;;;;;;;0.43;0.40;;;23.90;97.50;;;;;;4980791;28;20697;-89
2022/07/11 09:26:22;;;;;;;0.40;0.40;;;23.60;98.20;;;;;;4981180;28;20297;-91
2022/07/11 09:29:03;;;;;;;0.40;0.30;;;23.70;97.50;;;;;;4980825;28;20225;-88
2022/07/11 09:31:32;;;;;;;0.40;0.40;;;23.80;96.90;;;;;;4978673;28;20196;-89
2022/07/11 09:34:05;;;;;;;0.40;0.40;;;23.60;97.60;;;;;;4980626;28;20206;-89
2022/07/11 09:36:44;;;;;;;0.40;0.40;;;23.40;97.60;;;;;;4979647;28;20248;-88
2022/07/11 09:39:13;;;;;;;0.50;0.38;;;23.20;99.00;;;;;;4980727;28;20185;-89
2022/07/11 09:41:41;;;;;;;0.30;0.30;;;23.10;99.30;;;;;;4976536;28;20213;-90
2022/07/11 09:44:16;;;;;;;0.38;0.35;;;23.00;99.90;;;;;;4976269;28;20217;-89
2022/07/11 09:46:45;;;;;;;0.40;0.40;;;23.20;98.90;;;;;;4976341;28;20209;-89
2022/07/11 09:49:14;;;;;;;0.47;0.30;;;23.20;99.50;;;;;;4976505;28;20706;-85
2022/07/11 09:51:41;;;;;;;0.40;0.40;;;23.20;99.40;;;;;;4974906;28;20666;-86
2022/07/11 09:54:09;;;;;;;0.45;0.40;;;23.00;99.50;;;;;;4975897;28;20205;-84
2022/07/11 09:56:40;;;;;;;0.40;0.40;;;23.10;98.20;;;;;;4980846;28;20209;-88
2022/07/11 09:59:10;;;;;;;0.93;0.50;;;23.10;99.00;;;;;;4981233;28;20220;-88
2022/07/11 10:01:37;;;;;;;0.50;0.40;;;23.30;98.40;;;;;;4981516;28;20252;-88
2022/07/11 10:04:06;;;;;;;0.75;0.40;;;23.50;98.30;;;;;;4982192;28;20205;-86
2022/07/11 10:06:36;;;;;;;0.40;0.30;;;23.60;97.30;;;;;;4981431;28;20201;-88
2022/07/11 10:09:04;;;;;;;0.73;0.40;;;23.50;97.40;;;;;;4980296;28;20201;-89
2022/07/11 10:11:32;;;;;;;0.50;0.30;;;23.60;97.00;;;;;;4979744;28;20303;-89
2022/07/11 10:14:00;;;;;;;0.35;0.32;;;23.70;96.40;;;;;;4981226;28;20190;-88
2022/07/11 10:16:39;;;;;;;0.40;0.40;;;23.80;96.60;;;;;;4981382;28;20189;-88
2022/07/11 10:19:23;;;;;;;0.50;0.40;;;23.70;96.70;;;;;;4980466;28;20189;-87
2022/07/11 10:22:03;;;;;;;1.60;0.50;;;23.60;97.70;;;;;;4979535;28;20186;-88
2022/07/11 10:24:41;;;;;;;0.40;0.40;;;23.60;97.20;;;;;;4979930;28;20209;-88
2022/07/11 10:27:17;;;;;;;0.40;0.40;;;23.50;97.20;;;;;;4979273;28;20217;-88
2022/07/11 10:29:50;;;;;;;0.40;0.40;;;23.40;96.30;;;;;;4979720;28;20268;-88
2022/07/11 10:32:17;;;;;;;0.40;0.40;;;23.30;95.80;;;;;;4978906;28;20260;-88
2022/07/11 10:34:44;;;;;;;0.40;0.40;;;23.20;96.70;;;;;;4979096;28;20205;-88
2022/07/11 10:37:12;;;;;;;0.40;0.40;;;23.40;97.40;;;;;;4980719;28;20597;-89
2022/07/11 10:39:46;;;;;;;0.50;0.40;;;23.80;96.90;;;;;;4979043;28;20287;-87
2022/07/11 10:42:21;;;;;;;0.85;0.40;;;24.10;95.40;;;;;;4979118;28;20288;-88
2022/07/11 10:44:50;;;;;;;0.50;0.50;;;24.30;94.40;;;;;;4979192;28;20205;-87
2022/07/11 10:47:35;;;;;;;0.40;0.40;;;24.10;94.10;;;;;;4979735;28;20229;-90
2022/07/11 10:50:08;;;;;;;0.70;0.47;;;23.80;94.50;;;;;;4978196;28;20205;-87
2022/07/11 10:52:40;;;;;;;0.50;0.40;;;23.80;94.90;;;;;;4981562;28;20194;-89
2022/07/11 10:55:20;;;;;;;0.90;0.50;;;23.70;95.30;;;;;;4981420;28;20186;-88
2022/07/11 10:57:59;;;;;;;0.30;0.30;;;23.60;95.70;;;;;;4979603;28;20232;-88
2022/07/11 11:00:27;;;;;;;0.40;0.40;;;23.70;95.60;;;;;;4978567;28;20212;-87
2022/07/11 11:03:03;;;;;;;0.47;0.40;;;23.90;95.60;;;;;;4978708;28;20661;-88
2022/07/11 11:05:53;;;;;;;0.40;0.30;;;23.80;94.80;;;;;;4978531;28;20221;-87
2022/07/11 11:08:43;;;;;;;0.30;0.30;;;23.90;94.90;;;;;;4977939;28;20295;-87
2022/07/11 11:11:38;;;;;;;0.50;0.40;;;24.00;94.20;;;;;;4978338;28;20194;-87
2022/07/11 11:14:19;;;;;;;0.55;0.35;;;24.30;94.60;;;;;;4979067;28;20630;-88
2022/07/11 11:16:47;;;;;;;0.35;0.30;;;24.40;93.60;;;;;;4977997;28;20229;-89
2022/07/11 11:19:46;;;;;;;0.40;0.38;;;24.20;94.30;;;;;;4980218;28;20216;-88
2022/07/11 11:22:14;;;;;;;0.40;0.40;;;24.10;94.60;;;;;;4978997;28;20708;-87
2022/07/11 11:24:44;;;;;;;0.50;0.30;;;24.00;95.40;;;;;;4978860;28;20547;-87
2022/07/11 11:27:18;;;;;;;0.43;0.40;;;24.10;94.30;;;;;;4979373;28;20226;-88
2022/07/11 11:29:45;;;;;;;0.40;0.40;;;24.00;94.50;;;;;;4981252;28;20190;-87
2022/07/11 11:32:12;;;;;;;0.40;0.40;;;23.90;94.10;;;;;;4982683;28;20201;-87
2022/07/11 11:34:40;;;;;;;0.40;0.40;;;23.70;94.80;;;;;;4982210;28;20213;-88
2022/07/11 11:37:07;;;;;;;0.85;0.40;;;23.70;93.90;;;;;;4983987;28;20257;-88
2022/07/11 11:39:38;;;;;;;0.40;0.40;;;23.40;94.60;;;;;;4983682;28;20211;-87
2022/07/11 11:42:09;;;;;;;0.53;0.37;;;23.50;95.10;;;;;;4983049;28;20201;-90
2022/07/11 11:44:48;;;;;;;0.60;0.60;;;23.50;94.60;;;;;;4984858;28;20206;-88
2022/07/11 11:47:15;;;;;;;0.40;0.33;;;23.20;95.10;;;;;;4982486;28;20225;-88
2022/07/11 11:49:42;;;;;;;0.40;0.30;;;23.10;95.60;;;;;;4982821;28;20202;-86
2022/07/11 11:52:10;;;;;;;0.77;0.43;;;23.10;95.90;;;;;;4982242;28;20273;-87
2022/07/11 11:54:39;;;;;;;0.50;0.30;;;23.20;95.30;;;;;;4982256;28;20220;-88
2022/07/11 11:57:10;;;;;;;0.40;0.40;;;23.20;95.70;;;;;;4983785;28;20233;-88
2022/07/11 11:59:37;;;;;;;0.40;0.30;;;23.40;95.40;;;;;;4983165;28;20221;-87
2022/07/11 12:02:04;;;;;;;0.50;0.43;;;23.60;95.20;;;;;;4983485;28;20705;-88
2022/07/11 12:04:33;;;;;;;0.40;0.40;;;23.70;95.40;;;;;;4983011;28;20233;-88
2022/07/11 12:07:01;;;;;;;0.40;0.40;;;23.70;95.00;;;;;;4984199;28;20763;-88
2022/07/11 12:14:57;;;;;;;0.50;0.40;;;23.80;94.30;;;;;;4982370;28;20196;-87
2022/07/11 12:17:24;;;;;;;0.40;0.40;;;23.70;94.50;;;;;;4982114;28;20229;-88
2022/07/11 12:19:51;;;;;;;0.60;0.50;;;23.50;94.80;;;;;;4982277;28;20202;-87
2022/07/11 12:22:18;;;;;;;0.40;0.30;;;23.50;94.30;;;;;;4983442;28;20216;-87
2022/07/11 12:24:48;;;;;;;0.40;0.40;;;23.40;94.70;;;;;;4983333;28;20210;-87
2022/07/11 12:27:19;;;;;;;0.57;0.50;;;23.30;95.60;;;;;;4980915;28;20229;-88
2022/07/11 12:29:50;;;;;;;0.55;0.50;;;23.40;95.40;;;;;;4977629;28;20182;-85
2022/07/11 12:32:18;;;;;;;0.40;0.40;;;23.40;95.50;;;;;;4977792;28;20685;-90
2022/07/11 12:34:46;;;;;;;0.60;0.43;;;23.50;95.00;;;;;;4978000;28;20268;-88
2022/07/11 12:37:14;;;;;;;0.47;0.40;;;23.50;95.50;;;;;;4977752;28;20227;-88
2022/07/11 12:39:51;;;;;;;0.50;0.50;;;23.50;95.30;;;;;;4976814;28;20295;-89
2022/07/11 12:42:26;;;;;;;0.63;0.63;;;23.40;95.80;;;;;;4977621;28;20204;-89
2022/07/11 12:44:59;;;;;;;0.60;0.60;;;23.50;95.20;;;;;;4977244;28;20212;-89
2022/07/11 12:47:28;;;;;;;0.50;0.40;;;23.50;95.00;;;;;;4977223;28;20233;-89
2022/07/11 12:49:55;;;;;;;0.50;0.50;;;23.30;95.60;;;;;;4977496;28;20638;-90
2022/07/11 12:52:22;;;;;;;0.40;0.30;;;23.30;95.60;;;;;;4978137;28;20209;-89
2022/07/11 12:54:49;;;;;;;0.47;0.47;;;23.40;95.10;;;;;;4977481;28;20244;-89
2022/07/11 12:57:18;;;;;;;0.60;0.50;;;23.40;95.40;;;;;;4977282;28;20316;-89
2022/07/11 12:59:46;;;;;;;0.80;0.65;;;23.40;96.10;;;;;;4978165;28;20210;-90
2022/07/11 13:02:14;;;;;;;0.50;0.50;;;23.40;95.60;;;;;;4976903;28;20193;-89
2022/07/11 13:04:42;;;;;;;0.50;0.40;;;23.30;95.90;;;;;;4976972;28;20205;-89
2022/07/11 13:10:11;;;;;;;0.60;0.40;;;23.10;95.40;;;;;;4977018;28;20188;-89
2022/07/11 13:12:38;;;;;;;1.17;0.50;;;23.00;95.70;;;;;;4976930;28;20233;-89
2022/07/11 13:15:11;;;;;;;0.60;0.50;;;23.00;95.90;;;;;;4976937;28;20206;-89